sensor_id;sensor_type;location;lat;lon;timestamp;P1;durP1;ratioP1;P2;durP2;ratioP2
53654;SDS011;39558;52.028;8.536;2023-09-18T00:00:47;7.20;;;4.20;;
53654;SDS011;39558;52.028;8.536;2023-09-18T00:03:16;5.93;;;4.05;;
53654;SDS011;39558;52.028;8.536;2023-09-18T00:05:44;9.32;;;4.57;;
53654;SDS011;39558;52.028;8.536;2023-09-18T00:08:10;6.07;;;3.67;;
53654;SDS011;39558;52.028;8.536;2023-09-18T00:10:36;6.70;;;4.50;;
53654;SDS011;39558;52.028;8.536;2023-09-18T00:13:02;5.75;;;4.07;;
53654;SDS011;39558;52.028;8.536;2023-09-18T00:15:28;5.63;;;3.65;;
53654;SDS011;39558;52.028;8.536;2023-09-18T00:17:54;6.38;;;3.95;;
53654;SDS011;39558;52.028;8.536;2023-09-18T00:20:20;8.32;;;4.32;;
53654;SDS011;39558;52.028;8.536;2023-09-18T00:22:51;7.20;;;4.30;;
53654;SDS011;39558;52.028;8.536;2023-09-18T00:25:17;6.55;;;4.18;;
53654;SDS011;39558;52.028;8.536;2023-09-18T00:27:43;6.78;;;4.25;;
53654;SDS011;39558;52.028;8.536;2023-09-18T00:30:09;5.28;;;3.83;;
53654;SDS011;39558;52.028;8.536;2023-09-18T00:32:36;6.45;;;4.38;;
53654;SDS011;39558;52.028;8.536;2023-09-18T00:35:02;5.97;;;4.22;;
53654;SDS011;39558;52.028;8.536;2023-09-18T00:37:28;6.57;;;4.25;;
53654;SDS011;39558;52.028;8.536;2023-09-18T00:39:54;7.18;;;3.72;;
53654;SDS011;39558;52.028;8.536;2023-09-18T00:42:20;4.97;;;3.47;;
53654;SDS011;39558;52.028;8.536;2023-09-18T00:44:47;6.05;;;3.63;;
53654;SDS011;39558;52.028;8.536;2023-09-18T00:47:13;6.35;;;3.85;;
53654;SDS011;39558;52.028;8.536;2023-09-18T00:49:40;8.90;;;4.57;;
53654;SDS011;39558;52.028;8.536;2023-09-18T00:52:07;6.07;;;3.80;;
53654;SDS011;39558;52.028;8.536;2023-09-18T00:54:34;5.88;;;3.95;;
53654;SDS011;39558;52.028;8.536;2023-09-18T00:57:00;6.72;;;3.50;;
53654;SDS011;39558;52.028;8.536;2023-09-18T00:59:26;5.35;;;3.70;;
53654;SDS011;39558;52.028;8.536;2023-09-18T01:01:52;7.55;;;4.47;;
53654;SDS011;39558;52.028;8.536;2023-09-18T01:04:19;6.32;;;3.63;;
53654;SDS011;39558;52.028;8.536;2023-09-18T01:06:45;5.07;;;3.78;;
53654;SDS011;39558;52.028;8.536;2023-09-18T01:09:12;6.10;;;3.70;;
53654;SDS011;39558;52.028;8.536;2023-09-18T01:11:42;6.38;;;4.20;;
53654;SDS011;39558;52.028;8.536;2023-09-18T01:14:13;6.28;;;3.78;;
53654;SDS011;39558;52.028;8.536;2023-09-18T01:16:58;6.50;;;3.95;;
53654;SDS011;39558;52.028;8.536;2023-09-18T01:19:35;6.72;;;4.40;;
53654;SDS011;39558;52.028;8.536;2023-09-18T01:22:02;5.30;;;3.83;;
53654;SDS011;39558;52.028;8.536;2023-09-18T01:24:28;6.25;;;4.30;;
53654;SDS011;39558;52.028;8.536;2023-09-18T01:26:54;7.20;;;4.20;;
53654;SDS011;39558;52.028;8.536;2023-09-18T01:29:20;5.88;;;3.55;;
53654;SDS011;39558;52.028;8.536;2023-09-18T01:31:46;7.72;;;3.58;;
53654;SDS011;39558;52.028;8.536;2023-09-18T01:34:13;5.60;;;3.78;;
53654;SDS011;39558;52.028;8.536;2023-09-18T01:36:39;5.28;;;3.50;;
53654;SDS011;39558;52.028;8.536;2023-09-18T01:39:06;5.95;;;3.97;;
53654;SDS011;39558;52.028;8.536;2023-09-18T01:41:35;6.25;;;3.90;;
53654;SDS011;39558;52.028;8.536;2023-09-18T01:44:01;5.40;;;3.70;;
53654;SDS011;39558;52.028;8.536;2023-09-18T01:46:27;6.13;;;4.10;;
53654;SDS011;39558;52.028;8.536;2023-09-18T01:48:53;6.30;;;3.97;;
53654;SDS011;39558;52.028;8.536;2023-09-18T01:51:19;6.65;;;3.80;;
53654;SDS011;39558;52.028;8.536;2023-09-18T01:53:45;6.00;;;3.83;;
53654;SDS011;39558;52.028;8.536;2023-09-18T01:56:11;6.57;;;3.75;;
53654;SDS011;39558;52.028;8.536;2023-09-18T01:58:37;5.97;;;4.07;;
53654;SDS011;39558;52.028;8.536;2023-09-18T02:01:03;6.97;;;3.58;;
53654;SDS011;39558;52.028;8.536;2023-09-18T02:03:29;9.40;;;3.53;;
53654;SDS011;39558;52.028;8.536;2023-09-18T02:05:55;7.68;;;3.78;;
53654;SDS011;39558;52.028;8.536;2023-09-18T02:08:21;6.30;;;4.00;;
53654;SDS011;39558;52.028;8.536;2023-09-18T02:10:47;6.05;;;3.50;;
53654;SDS011;39558;52.028;8.536;2023-09-18T02:13:13;6.10;;;3.63;;
53654;SDS011;39558;52.028;8.536;2023-09-18T02:15:39;5.13;;;3.80;;
53654;SDS011;39558;52.028;8.536;2023-09-18T02:18:05;4.93;;;3.65;;
53654;SDS011;39558;52.028;8.536;2023-09-18T02:20:31;7.28;;;3.75;;
53654;SDS011;39558;52.028;8.536;2023-09-18T02:22:56;5.60;;;4.15;;
53654;SDS011;39558;52.028;8.536;2023-09-18T02:25:22;7.25;;;3.28;;
53654;SDS011;39558;52.028;8.536;2023-09-18T02:27:48;5.03;;;3.83;;
53654;SDS011;39558;52.028;8.536;2023-09-18T02:30:14;4.50;;;3.17;;
53654;SDS011;39558;52.028;8.536;2023-09-18T02:32:40;6.00;;;3.45;;
53654;SDS011;39558;52.028;8.536;2023-09-18T02:35:07;4.72;;;3.45;;
53654;SDS011;39558;52.028;8.536;2023-09-18T02:37:32;4.68;;;3.42;;
53654;SDS011;39558;52.028;8.536;2023-09-18T02:39:58;5.40;;;3.58;;
53654;SDS011;39558;52.028;8.536;2023-09-18T02:42:24;5.10;;;3.55;;
53654;SDS011;39558;52.028;8.536;2023-09-18T02:44:50;6.40;;;3.70;;
53654;SDS011;39558;52.028;8.536;2023-09-18T02:47:16;4.72;;;3.13;;
53654;SDS011;39558;52.028;8.536;2023-09-18T02:49:42;6.32;;;3.70;;
53654;SDS011;39558;52.028;8.536;2023-09-18T02:52:08;4.90;;;2.75;;
53654;SDS011;39558;52.028;8.536;2023-09-18T02:54:34;5.57;;;3.60;;
53654;SDS011;39558;52.028;8.536;2023-09-18T02:57:00;5.78;;;3.90;;
53654;SDS011;39558;52.028;8.536;2023-09-18T02:59:26;7.65;;;4.00;;
53654;SDS011;39558;52.028;8.536;2023-09-18T03:01:52;5.95;;;3.53;;
53654;SDS011;39558;52.028;8.536;2023-09-18T03:04:18;5.53;;;3.78;;
53654;SDS011;39558;52.028;8.536;2023-09-18T03:06:44;6.15;;;4.07;;
53654;SDS011;39558;52.028;8.536;2023-09-18T03:09:10;5.18;;;3.45;;
53654;SDS011;39558;52.028;8.536;2023-09-18T03:11:36;5.35;;;3.50;;
53654;SDS011;39558;52.028;8.536;2023-09-18T03:14:02;5.40;;;3.85;;
53654;SDS011;39558;52.028;8.536;2023-09-18T03:16:28;4.65;;;3.40;;
53654;SDS011;39558;52.028;8.536;2023-09-18T03:18:57;5.70;;;3.20;;
53654;SDS011;39558;52.028;8.536;2023-09-18T03:21:23;4.25;;;3.25;;
53654;SDS011;39558;52.028;8.536;2023-09-18T03:23:49;7.97;;;3.63;;
53654;SDS011;39558;52.028;8.536;2023-09-18T03:26:15;5.90;;;3.80;;
53654;SDS011;39558;52.028;8.536;2023-09-18T03:28:41;5.82;;;4.32;;
53654;SDS011;39558;52.028;8.536;2023-09-18T03:31:07;5.13;;;3.50;;
53654;SDS011;39558;52.028;8.536;2023-09-18T03:33:33;5.35;;;3.47;;
53654;SDS011;39558;52.028;8.536;2023-09-18T03:35:59;5.80;;;3.50;;
53654;SDS011;39558;52.028;8.536;2023-09-18T03:38:24;6.47;;;3.95;;
53654;SDS011;39558;52.028;8.536;2023-09-18T03:40:50;5.55;;;3.85;;
53654;SDS011;39558;52.028;8.536;2023-09-18T03:43:16;5.38;;;3.35;;
53654;SDS011;39558;52.028;8.536;2023-09-18T03:45:42;4.95;;;3.35;;
53654;SDS011;39558;52.028;8.536;2023-09-18T03:48:08;5.43;;;3.40;;
53654;SDS011;39558;52.028;8.536;2023-09-18T03:50:34;5.93;;;3.63;;
53654;SDS011;39558;52.028;8.536;2023-09-18T03:53:00;5.88;;;3.85;;
53654;SDS011;39558;52.028;8.536;2023-09-18T03:55:26;6.53;;;3.35;;
53654;SDS011;39558;52.028;8.536;2023-09-18T03:57:52;4.80;;;3.50;;
53654;SDS011;39558;52.028;8.536;2023-09-18T04:00:18;5.95;;;3.90;;
53654;SDS011;39558;52.028;8.536;2023-09-18T04:02:44;7.68;;;3.65;;
53654;SDS011;39558;52.028;8.536;2023-09-18T04:05:10;6.40;;;3.78;;
53654;SDS011;39558;52.028;8.536;2023-09-18T04:07:36;7.22;;;3.53;;
53654;SDS011;39558;52.028;8.536;2023-09-18T04:10:02;5.20;;;3.83;;
53654;SDS011;39558;52.028;8.536;2023-09-18T04:12:28;5.53;;;3.65;;
53654;SDS011;39558;52.028;8.536;2023-09-18T04:14:54;7.13;;;3.80;;
53654;SDS011;39558;52.028;8.536;2023-09-18T04:17:20;5.00;;;3.80;;
53654;SDS011;39558;52.028;8.536;2023-09-18T04:19:46;4.95;;;3.55;;
53654;SDS011;39558;52.028;8.536;2023-09-18T04:22:13;5.30;;;3.92;;
53654;SDS011;39558;52.028;8.536;2023-09-18T04:24:39;4.32;;;3.45;;
53654;SDS011;39558;52.028;8.536;2023-09-18T04:27:05;7.15;;;3.30;;
53654;SDS011;39558;52.028;8.536;2023-09-18T04:29:31;5.65;;;3.85;;
53654;SDS011;39558;52.028;8.536;2023-09-18T04:31:57;5.07;;;3.47;;
53654;SDS011;39558;52.028;8.536;2023-09-18T04:34:23;6.00;;;3.58;;
53654;SDS011;39558;52.028;8.536;2023-09-18T04:36:49;8.55;;;4.28;;
53654;SDS011;39558;52.028;8.536;2023-09-18T04:39:15;5.35;;;3.47;;
53654;SDS011;39558;52.028;8.536;2023-09-18T04:41:41;5.57;;;3.10;;
53654;SDS011;39558;52.028;8.536;2023-09-18T04:44:07;7.38;;;3.80;;
53654;SDS011;39558;52.028;8.536;2023-09-18T04:46:33;6.78;;;3.83;;
53654;SDS011;39558;52.028;8.536;2023-09-18T04:49:02;6.50;;;3.70;;
53654;SDS011;39558;52.028;8.536;2023-09-18T04:51:28;16.38;;;4.05;;
53654;SDS011;39558;52.028;8.536;2023-09-18T04:53:54;4.97;;;3.13;;
53654;SDS011;39558;52.028;8.536;2023-09-18T04:56:21;6.80;;;3.58;;
53654;SDS011;39558;52.028;8.536;2023-09-18T04:58:46;7.40;;;4.35;;
53654;SDS011;39558;52.028;8.536;2023-09-18T05:01:12;6.45;;;3.85;;
53654;SDS011;39558;52.028;8.536;2023-09-18T05:03:38;7.18;;;3.33;;
53654;SDS011;39558;52.028;8.536;2023-09-18T05:06:04;8.52;;;4.03;;
53654;SDS011;39558;52.028;8.536;2023-09-18T05:08:30;5.47;;;4.00;;
53654;SDS011;39558;52.028;8.536;2023-09-18T05:10:56;5.50;;;3.55;;
53654;SDS011;39558;52.028;8.536;2023-09-18T05:13:22;6.97;;;4.07;;
53654;SDS011;39558;52.028;8.536;2023-09-18T05:15:48;7.05;;;3.42;;
53654;SDS011;39558;52.028;8.536;2023-09-18T05:18:14;5.97;;;3.60;;
53654;SDS011;39558;52.028;8.536;2023-09-18T05:20:40;4.93;;;3.03;;
53654;SDS011;39558;52.028;8.536;2023-09-18T05:23:06;5.63;;;3.50;;
53654;SDS011;39558;52.028;8.536;2023-09-18T05:25:32;5.90;;;3.85;;
53654;SDS011;39558;52.028;8.536;2023-09-18T05:27:59;7.25;;;4.07;;
53654;SDS011;39558;52.028;8.536;2023-09-18T05:30:32;5.82;;;3.47;;
53654;SDS011;39558;52.028;8.536;2023-09-18T05:32:59;5.45;;;3.67;;
53654;SDS011;39558;52.028;8.536;2023-09-18T05:35:33;6.95;;;3.58;;
53654;SDS011;39558;52.028;8.536;2023-09-18T05:38:01;8.27;;;3.50;;
53654;SDS011;39558;52.028;8.536;2023-09-18T05:40:27;6.80;;;3.83;;
53654;SDS011;39558;52.028;8.536;2023-09-18T05:42:54;5.45;;;3.55;;
53654;SDS011;39558;52.028;8.536;2023-09-18T05:45:20;6.30;;;3.10;;
53654;SDS011;39558;52.028;8.536;2023-09-18T05:47:46;8.18;;;3.28;;
53654;SDS011;39558;52.028;8.536;2023-09-18T05:50:13;6.13;;;3.85;;
53654;SDS011;39558;52.028;8.536;2023-09-18T05:52:40;5.90;;;3.17;;
53654;SDS011;39558;52.028;8.536;2023-09-18T05:55:07;5.25;;;3.38;;
53654;SDS011;39558;52.028;8.536;2023-09-18T05:57:33;5.50;;;3.55;;
53654;SDS011;39558;52.028;8.536;2023-09-18T05:59:59;5.80;;;3.42;;
53654;SDS011;39558;52.028;8.536;2023-09-18T06:02:25;5.38;;;3.53;;
53654;SDS011;39558;52.028;8.536;2023-09-18T06:04:55;5.25;;;3.42;;
53654;SDS011;39558;52.028;8.536;2023-09-18T06:07:25;5.18;;;3.05;;
53654;SDS011;39558;52.028;8.536;2023-09-18T06:09:51;5.15;;;3.17;;
53654;SDS011;39558;52.028;8.536;2023-09-18T06:12:17;4.97;;;3.47;;
53654;SDS011;39558;52.028;8.536;2023-09-18T06:14:43;5.45;;;3.08;;
53654;SDS011;39558;52.028;8.536;2023-09-18T06:17:10;5.70;;;3.28;;
53654;SDS011;39558;52.028;8.536;2023-09-18T06:19:35;7.03;;;3.83;;
53654;SDS011;39558;52.028;8.536;2023-09-18T06:22:02;5.93;;;3.53;;
53654;SDS011;39558;52.028;8.536;2023-09-18T06:24:27;5.90;;;3.55;;
53654;SDS011;39558;52.028;8.536;2023-09-18T06:26:53;9.68;;;3.97;;
53654;SDS011;39558;52.028;8.536;2023-09-18T06:29:19;6.88;;;3.60;;
53654;SDS011;39558;52.028;8.536;2023-09-18T06:31:46;5.68;;;3.97;;
53654;SDS011;39558;52.028;8.536;2023-09-18T06:34:12;7.47;;;4.85;;
53654;SDS011;39558;52.028;8.536;2023-09-18T06:36:38;9.68;;;4.18;;
53654;SDS011;39558;52.028;8.536;2023-09-18T06:39:04;8.48;;;3.50;;
53654;SDS011;39558;52.028;8.536;2023-09-18T06:41:30;8.88;;;4.05;;
53654;SDS011;39558;52.028;8.536;2023-09-18T06:43:55;9.98;;;3.92;;
53654;SDS011;39558;52.028;8.536;2023-09-18T06:46:22;5.85;;;3.53;;
53654;SDS011;39558;52.028;8.536;2023-09-18T06:48:48;8.07;;;4.72;;
53654;SDS011;39558;52.028;8.536;2023-09-18T06:51:16;7.18;;;3.92;;
53654;SDS011;39558;52.028;8.536;2023-09-18T06:53:43;8.60;;;4.38;;
53654;SDS011;39558;52.028;8.536;2023-09-18T06:56:09;7.72;;;4.00;;
53654;SDS011;39558;52.028;8.536;2023-09-18T06:58:35;7.63;;;4.22;;
53654;SDS011;39558;52.028;8.536;2023-09-18T07:01:01;9.68;;;4.13;;
53654;SDS011;39558;52.028;8.536;2023-09-18T07:03:28;6.22;;;4.25;;
53654;SDS011;39558;52.028;8.536;2023-09-18T07:05:54;12.15;;;4.32;;
53654;SDS011;39558;52.028;8.536;2023-09-18T07:08:19;6.57;;;4.53;;
53654;SDS011;39558;52.028;8.536;2023-09-18T07:10:49;6.88;;;4.20;;
53654;SDS011;39558;52.028;8.536;2023-09-18T07:13:15;7.60;;;3.65;;
53654;SDS011;39558;52.028;8.536;2023-09-18T07:15:41;7.00;;;3.65;;
53654;SDS011;39558;52.028;8.536;2023-09-18T07:18:06;6.85;;;3.80;;
53654;SDS011;39558;52.028;8.536;2023-09-18T07:20:34;11.70;;;4.20;;
53654;SDS011;39558;52.028;8.536;2023-09-18T07:23:01;7.25;;;4.40;;
53654;SDS011;39558;52.028;8.536;2023-09-18T07:25:26;7.18;;;3.80;;
53654;SDS011;39558;52.028;8.536;2023-09-18T07:27:52;7.65;;;3.80;;
53654;SDS011;39558;52.028;8.536;2023-09-18T07:30:18;5.90;;;3.45;;
53654;SDS011;39558;52.028;8.536;2023-09-18T07:32:46;6.90;;;3.95;;
53654;SDS011;39558;52.028;8.536;2023-09-18T07:35:12;5.47;;;3.80;;
53654;SDS011;39558;52.028;8.536;2023-09-18T07:37:39;4.82;;;3.45;;
53654;SDS011;39558;52.028;8.536;2023-09-18T07:40:06;7.20;;;3.83;;
53654;SDS011;39558;52.028;8.536;2023-09-18T07:42:32;7.40;;;4.18;;
53654;SDS011;39558;52.028;8.536;2023-09-18T07:44:58;6.38;;;3.70;;
53654;SDS011;39558;52.028;8.536;2023-09-18T07:47:24;10.38;;;3.88;;
53654;SDS011;39558;52.028;8.536;2023-09-18T07:49:50;6.93;;;3.80;;
53654;SDS011;39558;52.028;8.536;2023-09-18T07:52:17;10.70;;;3.75;;
53654;SDS011;39558;52.028;8.536;2023-09-18T07:54:43;7.68;;;3.85;;
53654;SDS011;39558;52.028;8.536;2023-09-18T07:57:09;6.22;;;3.75;;
53654;SDS011;39558;52.028;8.536;2023-09-18T07:59:38;4.93;;;3.35;;
53654;SDS011;39558;52.028;8.536;2023-09-18T08:02:04;6.00;;;3.42;;
53654;SDS011;39558;52.028;8.536;2023-09-18T08:04:31;5.07;;;3.40;;
53654;SDS011;39558;52.028;8.536;2023-09-18T08:06:57;7.63;;;3.40;;
53654;SDS011;39558;52.028;8.536;2023-09-18T08:09:23;11.27;;;3.60;;
53654;SDS011;39558;52.028;8.536;2023-09-18T08:11:49;7.57;;;3.70;;
53654;SDS011;39558;52.028;8.536;2023-09-18T08:14:15;6.82;;;3.00;;
53654;SDS011;39558;52.028;8.536;2023-09-18T08:16:42;5.22;;;3.42;;
53654;SDS011;39558;52.028;8.536;2023-09-18T08:19:07;8.23;;;3.88;;
53654;SDS011;39558;52.028;8.536;2023-09-18T08:21:34;5.35;;;3.20;;
53654;SDS011;39558;52.028;8.536;2023-09-18T08:24:00;5.60;;;3.50;;
53654;SDS011;39558;52.028;8.536;2023-09-18T08:26:27;9.32;;;3.30;;
53654;SDS011;39558;52.028;8.536;2023-09-18T08:28:53;6.35;;;3.45;;
53654;SDS011;39558;52.028;8.536;2023-09-18T08:31:19;4.22;;;2.97;;
53654;SDS011;39558;52.028;8.536;2023-09-18T08:33:45;4.53;;;2.78;;
53654;SDS011;39558;52.028;8.536;2023-09-18T08:36:11;6.30;;;3.33;;
53654;SDS011;39558;52.028;8.536;2023-09-18T08:38:37;8.02;;;3.17;;
53654;SDS011;39558;52.028;8.536;2023-09-18T08:41:03;4.93;;;2.65;;
53654;SDS011;39558;52.028;8.536;2023-09-18T08:43:31;4.55;;;2.83;;
53654;SDS011;39558;52.028;8.536;2023-09-18T08:45:57;5.13;;;2.70;;
53654;SDS011;39558;52.028;8.536;2023-09-18T08:48:28;6.80;;;3.03;;
53654;SDS011;39558;52.028;8.536;2023-09-18T08:50:59;8.07;;;3.33;;
53654;SDS011;39558;52.028;8.536;2023-09-18T08:53:26;4.75;;;3.13;;
53654;SDS011;39558;52.028;8.536;2023-09-18T08:55:52;7.60;;;3.17;;
53654;SDS011;39558;52.028;8.536;2023-09-18T08:58:23;5.75;;;3.25;;
53654;SDS011;39558;52.028;8.536;2023-09-18T09:00:49;6.22;;;2.85;;
53654;SDS011;39558;52.028;8.536;2023-09-18T09:03:15;5.18;;;2.83;;
53654;SDS011;39558;52.028;8.536;2023-09-18T09:05:41;5.78;;;2.85;;
53654;SDS011;39558;52.028;8.536;2023-09-18T09:08:07;5.07;;;3.00;;
53654;SDS011;39558;52.028;8.536;2023-09-18T09:10:33;4.70;;;2.83;;
53654;SDS011;39558;52.028;8.536;2023-09-18T09:12:59;7.05;;;2.72;;
53654;SDS011;39558;52.028;8.536;2023-09-18T09:15:27;3.80;;;2.83;;
53654;SDS011;39558;52.028;8.536;2023-09-18T09:18:06;5.72;;;3.25;;
53654;SDS011;39558;52.028;8.536;2023-09-18T09:20:33;5.07;;;3.00;;
53654;SDS011;39558;52.028;8.536;2023-09-18T09:23:01;5.40;;;2.80;;
53654;SDS011;39558;52.028;8.536;2023-09-18T09:25:31;5.47;;;3.08;;
53654;SDS011;39558;52.028;8.536;2023-09-18T09:27:58;8.20;;;3.03;;
53654;SDS011;39558;52.028;8.536;2023-09-18T09:30:25;5.32;;;3.05;;
53654;SDS011;39558;52.028;8.536;2023-09-18T09:32:52;5.47;;;2.55;;
53654;SDS011;39558;52.028;8.536;2023-09-18T09:35:22;6.15;;;2.78;;
53654;SDS011;39558;52.028;8.536;2023-09-18T09:38:06;5.40;;;2.47;;
53654;SDS011;39558;52.028;8.536;2023-09-18T09:40:33;10.07;;;3.03;;
53654;SDS011;39558;52.028;8.536;2023-09-18T09:43:00;5.63;;;2.85;;
53654;SDS011;39558;52.028;8.536;2023-09-18T09:45:27;6.15;;;2.67;;
53654;SDS011;39558;52.028;8.536;2023-09-18T09:47:54;5.57;;;2.97;;
53654;SDS011;39558;52.028;8.536;2023-09-18T09:50:20;5.60;;;2.75;;
53654;SDS011;39558;52.028;8.536;2023-09-18T09:52:47;4.32;;;2.50;;
53654;SDS011;39558;52.028;8.536;2023-09-18T09:55:18;5.40;;;3.35;;
53654;SDS011;39558;52.028;8.536;2023-09-18T09:57:46;8.43;;;2.90;;
53654;SDS011;39558;52.028;8.536;2023-09-18T10:00:13;4.82;;;2.70;;
53654;SDS011;39558;52.028;8.536;2023-09-18T10:02:57;5.07;;;2.58;;
53654;SDS011;39558;52.028;8.536;2023-09-18T10:05:27;3.97;;;2.70;;
53654;SDS011;39558;52.028;8.536;2023-09-18T10:07:55;6.15;;;2.80;;
53654;SDS011;39558;52.028;8.536;2023-09-18T10:10:24;6.97;;;2.78;;
53654;SDS011;39558;52.028;8.536;2023-09-18T10:12:50;5.28;;;2.53;;
53654;SDS011;39558;52.028;8.536;2023-09-18T10:15:15;4.82;;;3.00;;
53654;SDS011;39558;52.028;8.536;2023-09-18T10:17:43;5.32;;;2.55;;
53654;SDS011;39558;52.028;8.536;2023-09-18T10:20:11;3.88;;;2.47;;
53654;SDS011;39558;52.028;8.536;2023-09-18T10:22:51;3.55;;;2.30;;
53654;SDS011;39558;52.028;8.536;2023-09-18T10:25:23;6.57;;;3.05;;
53654;SDS011;39558;52.028;8.536;2023-09-18T10:27:49;4.80;;;2.50;;
53654;SDS011;39558;52.028;8.536;2023-09-18T10:30:18;3.88;;;2.30;;
53654;SDS011;39558;52.028;8.536;2023-09-18T10:32:45;3.92;;;2.50;;
53654;SDS011;39558;52.028;8.536;2023-09-18T10:35:13;4.50;;;2.35;;
53654;SDS011;39558;52.028;8.536;2023-09-18T10:37:39;5.05;;;2.55;;
53654;SDS011;39558;52.028;8.536;2023-09-18T10:40:08;3.70;;;2.53;;
53654;SDS011;39558;52.028;8.536;2023-09-18T10:42:34;5.18;;;2.67;;
53654;SDS011;39558;52.028;8.536;2023-09-18T10:45:01;5.30;;;2.70;;
53654;SDS011;39558;52.028;8.536;2023-09-18T10:47:29;4.88;;;2.50;;
53654;SDS011;39558;52.028;8.536;2023-09-18T10:49:56;4.07;;;2.58;;
53654;SDS011;39558;52.028;8.536;2023-09-18T10:52:22;4.65;;;2.40;;
53654;SDS011;39558;52.028;8.536;2023-09-18T10:54:48;2.85;;;2.00;;
53654;SDS011;39558;52.028;8.536;2023-09-18T10:57:14;4.50;;;2.47;;
53654;SDS011;39558;52.028;8.536;2023-09-18T10:59:46;6.63;;;2.42;;
53654;SDS011;39558;52.028;8.536;2023-09-18T11:02:15;5.93;;;2.70;;
53654;SDS011;39558;52.028;8.536;2023-09-18T11:04:42;4.65;;;3.00;;
53654;SDS011;39558;52.028;8.536;2023-09-18T11:07:08;4.32;;;2.65;;
53654;SDS011;39558;52.028;8.536;2023-09-18T11:09:44;4.82;;;2.85;;
53654;SDS011;39558;52.028;8.536;2023-09-18T11:12:11;3.28;;;2.30;;
53654;SDS011;39558;52.028;8.536;2023-09-18T11:14:41;5.25;;;2.33;;
53654;SDS011;39558;52.028;8.536;2023-09-18T11:20:03;3.83;;;2.47;;
53654;SDS011;39558;52.028;8.536;2023-09-18T11:22:48;4.57;;;2.83;;
53654;SDS011;39558;52.028;8.536;2023-09-18T11:27:59;3.92;;;2.80;;
53654;SDS011;39558;52.028;8.536;2023-09-18T11:30:25;5.15;;;2.60;;
53654;SDS011;39558;52.028;8.536;2023-09-18T11:32:51;6.28;;;2.63;;
53654;SDS011;39558;52.028;8.536;2023-09-18T11:35:18;3.47;;;2.35;;
53654;SDS011;39558;52.028;8.536;2023-09-18T11:37:44;6.05;;;3.15;;
53654;SDS011;39558;52.028;8.536;2023-09-18T11:40:31;3.78;;;2.40;;
53654;SDS011;39558;52.028;8.536;2023-09-18T11:45:44;5.28;;;2.80;;
53654;SDS011;39558;52.028;8.536;2023-09-18T11:48:12;8.82;;;2.97;;
53654;SDS011;39558;52.028;8.536;2023-09-18T11:50:38;4.25;;;2.72;;
53654;SDS011;39558;52.028;8.536;2023-09-18T11:53:07;6.32;;;2.97;;
53654;SDS011;39558;52.028;8.536;2023-09-18T11:55:33;5.22;;;3.22;;
53654;SDS011;39558;52.028;8.536;2023-09-18T11:57:59;4.88;;;3.00;;
53654;SDS011;39558;52.028;8.536;2023-09-18T12:00:26;6.90;;;3.08;;
53654;SDS011;39558;52.028;8.536;2023-09-18T12:02:54;4.55;;;2.78;;
53654;SDS011;39558;52.028;8.536;2023-09-18T12:05:20;4.68;;;2.65;;
53654;SDS011;39558;52.028;8.536;2023-09-18T12:10:17;5.03;;;2.80;;
53654;SDS011;39558;52.028;8.536;2023-09-18T12:12:43;6.00;;;2.83;;
53654;SDS011;39558;52.028;8.536;2023-09-18T12:15:13;4.60;;;2.60;;
53654;SDS011;39558;52.028;8.536;2023-09-18T12:20:06;5.88;;;3.38;;
53654;SDS011;39558;52.028;8.536;2023-09-18T12:22:32;4.22;;;2.40;;
53654;SDS011;39558;52.028;8.536;2023-09-18T12:25:08;5.47;;;3.10;;
53654;SDS011;39558;52.028;8.536;2023-09-18T12:27:35;6.55;;;2.53;;
53654;SDS011;39558;52.028;8.536;2023-09-18T12:30:02;6.85;;;3.22;;
53654;SDS011;39558;52.028;8.536;2023-09-18T12:32:29;7.20;;;3.35;;
53654;SDS011;39558;52.028;8.536;2023-09-18T12:34:57;4.45;;;2.58;;
53654;SDS011;39558;52.028;8.536;2023-09-18T12:37:23;4.57;;;2.72;;
53654;SDS011;39558;52.028;8.536;2023-09-18T12:39:49;3.33;;;2.40;;
53654;SDS011;39558;52.028;8.536;2023-09-18T12:42:17;5.85;;;3.08;;
53654;SDS011;39558;52.028;8.536;2023-09-18T12:44:42;4.88;;;2.70;;
53654;SDS011;39558;52.028;8.536;2023-09-18T12:47:08;7.32;;;2.67;;
53654;SDS011;39558;52.028;8.536;2023-09-18T12:49:34;7.30;;;2.85;;
53654;SDS011;39558;52.028;8.536;2023-09-18T12:52:01;7.07;;;2.95;;
53654;SDS011;39558;52.028;8.536;2023-09-18T12:54:44;4.28;;;2.78;;
53654;SDS011;39558;52.028;8.536;2023-09-18T12:57:17;7.72;;;2.67;;
53654;SDS011;39558;52.028;8.536;2023-09-18T12:59:43;6.80;;;3.05;;
53654;SDS011;39558;52.028;8.536;2023-09-18T13:02:09;7.70;;;2.58;;
53654;SDS011;39558;52.028;8.536;2023-09-18T13:04:38;6.55;;;3.35;;
53654;SDS011;39558;52.028;8.536;2023-09-18T13:07:11;5.88;;;2.50;;
53654;SDS011;39558;52.028;8.536;2023-09-18T13:09:37;8.85;;;2.85;;
53654;SDS011;39558;52.028;8.536;2023-09-18T13:12:03;5.18;;;2.58;;
53654;SDS011;39558;52.028;8.536;2023-09-18T13:14:29;8.70;;;2.72;;
53654;SDS011;39558;52.028;8.536;2023-09-18T13:17:02;10.80;;;3.08;;
53654;SDS011;39558;52.028;8.536;2023-09-18T13:19:29;5.43;;;2.50;;
53654;SDS011;39558;52.028;8.536;2023-09-18T13:21:55;7.38;;;3.33;;
53654;SDS011;39558;52.028;8.536;2023-09-18T13:24:28;5.28;;;3.20;;
53654;SDS011;39558;52.028;8.536;2023-09-18T13:26:54;7.53;;;3.35;;
53654;SDS011;39558;52.028;8.536;2023-09-18T13:29:21;7.88;;;2.47;;
53654;SDS011;39558;52.028;8.536;2023-09-18T13:31:47;4.30;;;2.25;;
53654;SDS011;39558;52.028;8.536;2023-09-18T13:34:13;6.35;;;2.75;;
53654;SDS011;39558;52.028;8.536;2023-09-18T13:36:42;7.07;;;3.13;;
53654;SDS011;39558;52.028;8.536;2023-09-18T13:39:08;4.20;;;2.63;;
53654;SDS011;39558;52.028;8.536;2023-09-18T13:41:34;4.18;;;2.50;;
53654;SDS011;39558;52.028;8.536;2023-09-18T13:44:00;7.00;;;2.83;;
53654;SDS011;39558;52.028;8.536;2023-09-18T13:46:26;10.25;;;3.50;;
53654;SDS011;39558;52.028;8.536;2023-09-18T13:48:52;4.25;;;2.30;;
53654;SDS011;39558;52.028;8.536;2023-09-18T13:51:18;5.75;;;3.20;;
53654;SDS011;39558;52.028;8.536;2023-09-18T13:53:44;5.40;;;3.28;;
53654;SDS011;39558;52.028;8.536;2023-09-18T13:56:10;6.63;;;2.85;;
53654;SDS011;39558;52.028;8.536;2023-09-18T13:58:36;8.18;;;3.15;;
53654;SDS011;39558;52.028;8.536;2023-09-18T14:03:32;4.57;;;2.42;;
53654;SDS011;39558;52.028;8.536;2023-09-18T14:05:59;7.10;;;2.83;;
53654;SDS011;39558;52.028;8.536;2023-09-18T14:08:25;10.10;;;3.20;;
53654;SDS011;39558;52.028;8.536;2023-09-18T14:10:51;6.05;;;2.50;;
53654;SDS011;39558;52.028;8.536;2023-09-18T14:13:17;6.47;;;2.40;;
53654;SDS011;39558;52.028;8.536;2023-09-18T14:15:42;5.00;;;2.90;;
53654;SDS011;39558;52.028;8.536;2023-09-18T14:18:08;5.78;;;3.17;;
53654;SDS011;39558;52.028;8.536;2023-09-18T14:20:35;8.70;;;2.25;;
53654;SDS011;39558;52.028;8.536;2023-09-18T14:23:01;8.38;;;2.28;;
53654;SDS011;39558;52.028;8.536;2023-09-18T14:25:28;5.82;;;3.17;;
53654;SDS011;39558;52.028;8.536;2023-09-18T14:27:54;5.53;;;2.70;;
53654;SDS011;39558;52.028;8.536;2023-09-18T14:30:20;7.13;;;2.72;;
53654;SDS011;39558;52.028;8.536;2023-09-18T14:32:47;7.82;;;2.90;;
53654;SDS011;39558;52.028;8.536;2023-09-18T14:35:13;7.43;;;2.15;;
53654;SDS011;39558;52.028;8.536;2023-09-18T14:37:39;5.88;;;2.85;;
53654;SDS011;39558;52.028;8.536;2023-09-18T14:40:05;11.15;;;2.90;;
53654;SDS011;39558;52.028;8.536;2023-09-18T14:42:35;8.38;;;2.60;;
53654;SDS011;39558;52.028;8.536;2023-09-18T14:45:01;9.43;;;2.70;;
53654;SDS011;39558;52.028;8.536;2023-09-18T14:47:27;4.15;;;1.80;;
53654;SDS011;39558;52.028;8.536;2023-09-18T14:49:53;4.22;;;1.90;;
53654;SDS011;39558;52.028;8.536;2023-09-18T14:52:19;6.25;;;2.30;;
53654;SDS011;39558;52.028;8.536;2023-09-18T14:54:48;5.13;;;1.63;;
53654;SDS011;39558;52.028;8.536;2023-09-18T14:57:14;6.55;;;1.98;;
53654;SDS011;39558;52.028;8.536;2023-09-18T14:59:40;6.88;;;1.90;;
53654;SDS011;39558;52.028;8.536;2023-09-18T15:02:12;9.45;;;2.00;;